createdAt,value
2019-04-29T00:00:59.851Z,1003.93
2019-04-29T00:01:59.822Z,1003.93
2019-04-29T00:02:59.815Z,1003.94
2019-04-29T00:03:59.798Z,1003.95
2019-04-29T00:04:59.790Z,1003.91
2019-04-29T00:05:59.824Z,1003.92
2019-04-29T00:06:59.767Z,1003.92
2019-04-29T00:07:59.752Z,1003.79
2019-04-29T00:08:59.746Z,1003.85
2019-04-29T00:09:59.730Z,1003.93
2019-04-29T00:10:59.718Z,1003.82
2019-04-29T00:11:59.751Z,1003.83
2019-04-29T00:12:59.702Z,1003.93
2019-04-29T00:13:59.683Z,1003.87
2019-04-29T00:14:59.685Z,1003.88
2019-04-29T00:15:59.662Z,1003.87
2019-04-29T00:16:59.697Z,1003.92
2019-04-29T00:17:59.679Z,1003.85
2019-04-29T00:18:59.704Z,1003.84
2019-04-29T00:19:59.622Z,1003.93
2019-04-29T00:20:59.605Z,1003.94
2019-04-29T00:21:59.605Z,1003.91
2019-04-29T00:22:59.608Z,1003.93
2019-04-29T00:24:03.891Z,1003.89
2019-04-29T00:24:59.554Z,1003.89
2019-04-29T00:25:59.546Z,1003.94
2019-04-29T00:26:59.586Z,1003.85
2019-04-29T00:27:59.525Z,1003.88
2019-04-29T00:28:59.509Z,1003.87
2019-04-29T00:29:59.521Z,1003.82
2019-04-29T00:30:59.534Z,1003.88
2019-04-29T00:31:59.525Z,1003.83
2019-04-29T00:32:59.462Z,1003.74
2019-04-29T00:33:59.459Z,1003.78
2019-04-29T00:34:59.439Z,1003.84
2019-04-29T00:35:59.435Z,1003.85
2019-04-29T00:36:59.415Z,1003.81
2019-04-29T00:37:59.447Z,1003.83
2019-04-29T00:38:59.394Z,1003.80
2019-04-29T00:39:59.426Z,1003.85
2019-04-29T00:40:59.372Z,1003.84
2019-04-29T00:41:59.379Z,1003.87
2019-04-29T00:42:59.346Z,1003.84
2019-04-29T00:43:59.378Z,1003.87
2019-04-29T00:44:59.330Z,1003.87
2019-04-29T00:45:59.315Z,1003.87
2019-04-29T00:46:59.299Z,1003.88
2019-04-29T00:47:59.288Z,1003.89
2019-04-29T00:48:59.489Z,1003.94
2019-04-29T00:49:59.267Z,1003.96
2019-04-29T00:50:59.255Z,1003.96
2019-04-29T00:51:59.246Z,1003.94
2019-04-29T00:52:59.237Z,1003.91
2019-04-29T00:53:59.231Z,1003.88
2019-04-29T00:54:59.311Z,1003.91
2019-04-29T00:55:59.196Z,1003.94
2019-04-29T00:56:59.185Z,1003.95
2019-04-29T00:57:59.175Z,1003.94
2019-04-29T00:58:59.162Z,1003.89
2019-04-29T00:59:59.164Z,1003.96
2019-04-29T01:00:59.352Z,1003.90
2019-04-29T01:01:59.131Z,1003.91
2019-04-29T01:02:59.119Z,1003.90
2019-04-29T01:03:59.104Z,1003.88
2019-04-29T01:04:59.095Z,1003.84
2019-04-29T01:05:59.082Z,1003.91
2019-04-29T01:06:59.141Z,1003.94
2019-04-29T01:07:59.064Z,1003.89
2019-04-29T01:08:59.047Z,1003.91
2019-04-29T01:09:59.039Z,1003.85
2019-04-29T01:10:59.023Z,1003.84
2019-04-29T01:11:59.012Z,1003.84
2019-04-29T01:12:59.088Z,1003.88
2019-04-29T01:13:58.988Z,1003.88
2019-04-29T01:14:58.977Z,1003.92
2019-04-29T01:15:58.969Z,1003.84
2019-04-29T01:16:58.954Z,1003.83
2019-04-29T01:17:58.960Z,1003.82
2019-04-29T01:18:59.003Z,1003.85
2019-04-29T01:19:58.921Z,1003.91
2019-04-29T01:20:58.925Z,1003.86
2019-04-29T01:21:58.911Z,1003.86
2019-04-29T01:22:58.893Z,1003.85
2019-04-29T01:23:58.876Z,1003.94
2019-04-29T01:24:58.941Z,1003.87
2019-04-29T01:25:58.854Z,1003.77
2019-04-29T01:26:58.862Z,1003.82
2019-04-29T01:27:58.850Z,1003.76
2019-04-29T01:28:58.833Z,1003.81
2019-04-29T01:29:58.806Z,1003.82
2019-04-29T01:30:59.007Z,1003.82
2019-04-29T01:31:58.782Z,1003.79
2019-04-29T01:32:58.773Z,1003.78
2019-04-29T01:33:58.764Z,1003.77
2019-04-29T01:34:58.750Z,1003.80
2019-04-29T01:35:58.738Z,1003.78
2019-04-29T01:36:58.937Z,1003.81
2019-04-29T01:37:58.715Z,1003.79
2019-04-29T01:38:58.707Z,1003.81
2019-04-29T01:39:58.722Z,1003.74
2019-04-29T01:40:58.694Z,1003.85
2019-04-29T01:41:58.671Z,1003.78
2019-04-29T01:42:58.727Z,1003.86
2019-04-29T01:43:58.649Z,1003.81
2019-04-29T01:44:58.637Z,1003.79
2019-04-29T01:45:58.633Z,1003.82
2019-04-29T01:46:58.628Z,1003.82
2019-04-29T01:47:58.605Z,1003.74
2019-04-29T01:48:58.671Z,1003.72
2019-04-29T01:49:58.581Z,1003.81
2019-04-29T01:50:58.582Z,1003.72
2019-04-29T01:51:58.559Z,1003.75
2019-04-29T01:52:58.549Z,1003.83
2019-04-29T01:53:58.557Z,1003.79
2019-04-29T01:54:58.604Z,1003.67
2019-04-29T01:55:58.522Z,1003.81
2019-04-29T01:56:58.504Z,1003.73
2019-04-29T01:57:58.507Z,1003.76
2019-04-29T01:58:58.478Z,1003.76
2019-04-29T01:59:58.467Z,1003.86
2019-04-29T02:00:58.521Z,1003.75
2019-04-29T02:01:58.444Z,1003.78
2019-04-29T02:02:58.434Z,1003.77
2019-04-29T02:03:58.425Z,1003.85
2019-04-29T02:04:58.408Z,1003.79
2019-04-29T02:05:58.397Z,1003.82
2019-04-29T02:06:58.464Z,1003.82
2019-04-29T02:07:58.380Z,1003.79
2019-04-29T02:08:58.383Z,1003.86
2019-04-29T02:09:58.374Z,1003.81
2019-04-29T02:10:58.377Z,1003.74
2019-04-29T02:11:58.343Z,1003.79
2019-04-29T02:12:58.388Z,1003.74
2019-04-29T02:13:58.318Z,1003.80
2019-04-29T02:15:01.022Z,1003.75
2019-04-29T02:15:58.952Z,1003.73
2019-04-29T02:16:58.279Z,1003.68
2019-04-29T02:17:58.281Z,1003.74
2019-04-29T02:18:58.320Z,1003.82
2019-04-29T02:19:58.260Z,1003.73
2019-04-29T02:20:58.225Z,1003.74
2019-04-29T02:21:58.215Z,1003.70
2019-04-29T02:22:58.212Z,1003.80
2019-04-29T02:23:58.209Z,1003.75
2019-04-29T02:24:58.262Z,1003.74
2019-04-29T02:25:58.171Z,1003.67
2019-04-29T02:26:58.158Z,1003.74
2019-04-29T02:27:58.157Z,1003.69
2019-04-29T02:28:58.134Z,1003.68
2019-04-29T02:29:58.134Z,1003.68
2019-04-29T02:30:58.184Z,1003.66
2019-04-29T02:31:58.100Z,1003.69
2019-04-29T02:32:58.088Z,1003.67
2019-04-29T02:33:58.076Z,1003.69
2019-04-29T02:34:58.073Z,1003.63
2019-04-29T02:35:58.051Z,1003.65
2019-04-29T02:36:58.115Z,1003.66
2019-04-29T02:37:58.096Z,1003.65
2019-04-29T02:38:58.019Z,1003.67
2019-04-29T02:39:58.007Z,1003.63
2019-04-29T02:40:57.997Z,1003.60
2019-04-29T02:41:57.983Z,1003.60
2019-04-29T02:42:58.049Z,1003.61
2019-04-29T02:43:57.966Z,1003.67
2019-04-29T02:44:57.952Z,1003.63
2019-04-29T02:45:57.938Z,1003.62
2019-04-29T02:46:57.932Z,1003.58
2019-04-29T02:47:57.915Z,1003.60
2019-04-29T02:48:57.993Z,1003.60
2019-04-29T02:49:57.902Z,1003.60
2019-04-29T02:50:57.881Z,1003.53
2019-04-29T02:51:57.873Z,1003.56
2019-04-29T02:52:57.865Z,1003.57
2019-04-29T02:53:57.845Z,1003.56
2019-04-29T02:54:58.046Z,1003.55
2019-04-29T02:55:57.827Z,1003.61
2019-04-29T02:56:57.817Z,1003.48
2019-04-29T02:57:57.816Z,1003.49
2019-04-29T02:58:57.785Z,1003.52
2019-04-29T02:59:57.774Z,1003.51
2019-04-29T03:00:57.977Z,1003.46
2019-04-29T03:01:57.750Z,1003.49
2019-04-29T03:02:57.740Z,1003.43
2019-04-29T03:03:57.729Z,1003.49
2019-04-29T03:04:57.742Z,1003.51
2019-04-29T03:05:57.706Z,1003.43
2019-04-29T03:06:57.916Z,1003.39
2019-04-29T03:07:57.704Z,1003.41
2019-04-29T03:08:57.680Z,1003.39
2019-04-29T03:09:57.664Z,1003.38
2019-04-29T03:10:57.648Z,1003.37
2019-04-29T03:12:01.632Z,1003.39
2019-04-29T03:12:57.706Z,1003.38
2019-04-29T03:13:57.611Z,1003.37
2019-04-29T03:14:57.601Z,1003.40
2019-04-29T03:15:57.590Z,1003.42
2019-04-29T03:16:57.577Z,1003.32
2019-04-29T03:17:57.566Z,1003.36
2019-04-29T03:18:57.644Z,1003.32
2019-04-29T03:19:57.546Z,1003.36
2019-04-29T03:20:57.537Z,1003.30
2019-04-29T03:21:57.549Z,1003.40
2019-04-29T03:22:57.510Z,1003.43
2019-04-29T03:23:57.498Z,1003.38
2019-04-29T03:24:57.547Z,1003.44
2019-04-29T03:25:57.474Z,1003.39
2019-04-29T03:26:57.598Z,1003.43
2019-04-29T03:27:57.497Z,1003.39
2019-04-29T03:28:57.457Z,1003.42
2019-04-29T03:29:57.430Z,1003.42
2019-04-29T03:30:57.628Z,1003.50
2019-04-29T03:31:57.445Z,1003.46
2019-04-29T03:32:57.424Z,1003.47
2019-04-29T03:33:57.389Z,1003.49
2019-04-29T03:34:57.383Z,1003.47
2019-04-29T03:35:57.367Z,1003.51
2019-04-29T03:36:57.566Z,1003.53
2019-04-29T03:37:57.350Z,1003.50
2019-04-29T03:38:57.416Z,1003.51
2019-04-29T03:39:57.319Z,1003.47
2019-04-29T03:40:57.316Z,1003.42
2019-04-29T03:41:57.302Z,1003.50
2019-04-29T03:42:57.393Z,1003.45
2019-04-29T03:43:57.278Z,1003.36
2019-04-29T03:44:57.262Z,1003.35
2019-04-29T03:45:57.261Z,1003.32
2019-04-29T03:46:57.241Z,1003.32
2019-04-29T03:47:57.238Z,1003.28
2019-04-29T03:48:57.281Z,1003.33
2019-04-29T03:49:57.209Z,1003.42
2019-04-29T03:50:57.328Z,1003.39
2019-04-29T03:51:57.188Z,1003.44
2019-04-29T03:52:57.176Z,1003.35
2019-04-29T03:53:57.162Z,1003.44
2019-04-29T03:54:57.222Z,1003.49
2019-04-29T03:55:57.143Z,1003.49
2019-04-29T03:56:57.132Z,1003.47
2019-04-29T03:57:57.123Z,1003.55
2019-04-29T03:58:57.139Z,1003.48
2019-04-29T03:59:57.292Z,1003.56
2019-04-29T04:00:57.168Z,1003.52
2019-04-29T04:01:57.072Z,1003.52
2019-04-29T04:02:57.064Z,1003.45
2019-04-29T04:03:57.054Z,1003.50
2019-04-29T04:04:57.044Z,1003.52
2019-04-29T04:05:57.037Z,1003.47
2019-04-29T04:06:57.221Z,1003.45
2019-04-29T04:07:57.006Z,1003.43
2019-04-29T04:09:06.349Z,1003.46
2019-04-29T04:09:57.985Z,1003.49
2019-04-29T04:10:56.974Z,1003.51
2019-04-29T04:11:56.981Z,1003.58
2019-04-29T04:12:57.036Z,1003.51
2019-04-29T04:13:56.966Z,1003.55
2019-04-29T04:14:56.943Z,1003.49
2019-04-29T04:15:56.920Z,1003.55
2019-04-29T04:16:56.936Z,1003.55
2019-04-29T04:17:56.895Z,1003.50
2019-04-29T04:18:57.088Z,1003.62
2019-04-29T04:19:56.870Z,1003.56
2019-04-29T04:20:56.860Z,1003.56
2019-04-29T04:21:56.848Z,1003.51
2019-04-29T04:22:56.842Z,1003.51
2019-04-29T04:23:58.283Z,1003.52
2019-04-29T04:24:56.901Z,1003.44
2019-04-29T04:25:56.809Z,1003.51
2019-04-29T04:26:56.800Z,1003.46
2019-04-29T04:27:56.803Z,1003.49
2019-04-29T04:28:56.770Z,1003.43
2019-04-29T04:29:56.761Z,1003.52
2019-04-29T04:30:56.956Z,1003.53
2019-04-29T04:31:56.743Z,1003.56
2019-04-29T04:32:56.725Z,1003.43
2019-04-29T04:33:56.727Z,1003.60
2019-04-29T04:34:56.710Z,1003.55
2019-04-29T04:35:56.703Z,1003.55
2019-04-29T04:37:00.170Z,1003.51
2019-04-29T04:37:56.668Z,1003.54
2019-04-29T04:38:56.677Z,1003.55
2019-04-29T04:39:56.682Z,1003.56
2019-04-29T04:40:56.662Z,1003.55
2019-04-29T04:41:56.629Z,1003.60
2019-04-29T04:42:56.704Z,1003.55
2019-04-29T04:43:56.601Z,1003.55
2019-04-29T04:44:56.586Z,1003.61
2019-04-29T04:45:56.579Z,1003.57
2019-04-29T04:46:56.563Z,1003.64
2019-04-29T04:47:56.554Z,1003.63
2019-04-29T04:48:56.607Z,1003.60
2019-04-29T04:49:56.528Z,1003.55
2019-04-29T04:50:56.536Z,1003.56
2019-04-29T04:51:56.511Z,1003.54
2019-04-29T04:52:56.493Z,1003.60
2019-04-29T04:53:56.502Z,1003.52
2019-04-29T04:54:56.679Z,1003.53
2019-04-29T04:55:56.459Z,1003.53
2019-04-29T04:56:56.447Z,1003.55
2019-04-29T04:57:56.435Z,1003.49
2019-04-29T04:58:56.425Z,1003.60
2019-04-29T04:59:56.417Z,1003.52
2019-04-29T05:00:56.470Z,1003.53
2019-04-29T05:01:56.395Z,1003.60
2019-04-29T05:02:56.410Z,1003.57
2019-04-29T05:03:56.370Z,1003.65
2019-04-29T05:04:56.355Z,1003.68
2019-04-29T05:05:56.344Z,1003.67
2019-04-29T05:06:56.400Z,1003.68
2019-04-29T05:07:56.351Z,1003.72
2019-04-29T05:08:56.308Z,1003.66
2019-04-29T05:09:56.305Z,1003.63
2019-04-29T05:10:56.305Z,1003.58
2019-04-29T05:11:56.276Z,1003.65
2019-04-29T05:12:56.478Z,1003.65
2019-04-29T05:13:56.256Z,1003.65
2019-04-29T05:14:56.259Z,1003.63
2019-04-29T05:15:56.229Z,1003.67
2019-04-29T05:16:56.219Z,1003.56
2019-04-29T05:17:56.208Z,1003.57
2019-04-29T05:18:56.258Z,1003.55
2019-04-29T05:19:56.190Z,1003.59
2019-04-29T05:20:56.178Z,1003.57
2019-04-29T05:21:56.162Z,1003.56
2019-04-29T05:22:56.154Z,1003.59
2019-04-29T05:23:56.150Z,1003.62
2019-04-29T05:24:56.353Z,1003.65
2019-04-29T05:25:56.128Z,1003.66
2019-04-29T05:26:56.112Z,1003.68
2019-04-29T05:27:56.094Z,1003.70
2019-04-29T05:28:56.081Z,1003.62
2019-04-29T05:29:56.070Z,1003.66
2019-04-29T05:30:56.127Z,1003.59
2019-04-29T05:31:56.053Z,1003.64
2019-04-29T05:32:56.042Z,1003.60
2019-04-29T05:33:56.043Z,1003.66
2019-04-29T05:34:56.018Z,1003.65
2019-04-29T05:35:56.592Z,1003.54
2019-04-29T05:36:57.052Z,1003.61
2019-04-29T05:37:56.892Z,1003.66
2019-04-29T05:38:55.967Z,1003.58
2019-04-29T05:39:55.955Z,1003.65
2019-04-29T05:40:57.059Z,1003.60
2019-04-29T05:41:55.932Z,1003.56
2019-04-29T05:42:56.009Z,1003.58
2019-04-29T05:43:55.915Z,1003.60
2019-04-29T05:44:55.900Z,1003.62
2019-04-29T05:45:55.906Z,1003.52
2019-04-29T05:46:55.880Z,1003.60
2019-04-29T05:47:56.973Z,1003.58
2019-04-29T05:48:55.918Z,1003.60
2019-04-29T05:49:55.844Z,1003.56
2019-04-29T05:50:55.834Z,1003.62
2019-04-29T05:51:57.516Z,1003.56
2019-04-29T05:52:56.812Z,1003.62
2019-04-29T05:53:56.011Z,1003.52
2019-04-29T05:54:55.882Z,1003.57
2019-04-29T05:55:55.776Z,1003.60
2019-04-29T05:56:55.809Z,1003.56
2019-04-29T05:58:02.887Z,1003.55
2019-04-29T05:58:56.747Z,1003.59
2019-04-29T05:59:55.738Z,1003.56
2019-04-29T06:00:55.791Z,1003.57
2019-04-29T06:01:55.711Z,1003.54
2019-04-29T06:02:55.716Z,1003.59
2019-04-29T06:03:55.685Z,1003.56
2019-04-29T06:04:55.674Z,1003.53
2019-04-29T06:05:55.677Z,1003.57
2019-04-29T06:06:55.724Z,1003.56
2019-04-29T06:07:56.101Z,1003.55
2019-04-29T06:08:55.657Z,1003.66
2019-04-29T06:09:55.617Z,1003.54
2019-04-29T06:10:55.613Z,1003.61
2019-04-29T06:11:55.597Z,1003.59
2019-04-29T06:12:55.648Z,1003.53
2019-04-29T06:13:55.582Z,1003.59
2019-04-29T06:14:55.595Z,1003.59
2019-04-29T06:15:55.552Z,1003.51
2019-04-29T06:16:57.724Z,1003.50
2019-04-29T06:17:56.586Z,1003.54
2019-04-29T06:19:00.380Z,1003.52
2019-04-29T06:19:56.517Z,1003.52
2019-04-29T06:21:08.326Z,1003.53
2019-04-29T06:21:56.481Z,1003.55
2019-04-29T06:22:55.469Z,1003.49
2019-04-29T06:23:59.477Z,1003.48
2019-04-29T06:24:56.443Z,1003.53
2019-04-29T06:25:55.467Z,1003.52
2019-04-29T06:26:55.420Z,1003.52
2019-04-29T06:27:55.408Z,1003.52
2019-04-29T06:28:55.421Z,1003.53
2019-04-29T06:29:58.519Z,1003.55
2019-04-29T06:30:56.373Z,1003.51
2019-04-29T06:31:55.376Z,1003.50
2019-04-29T06:32:55.350Z,1003.48
2019-04-29T06:33:55.345Z,1003.54
2019-04-29T06:34:55.328Z,1003.54
2019-04-29T06:35:57.024Z,1003.55
2019-04-29T06:36:55.315Z,1003.58
2019-04-29T06:37:55.304Z,1003.65
2019-04-29T06:38:55.285Z,1003.62
2019-04-29T06:39:55.272Z,1003.57
2019-04-29T06:40:55.261Z,1003.59
2019-04-29T06:41:55.316Z,1003.61
2019-04-29T06:42:55.292Z,1003.55
2019-04-29T06:43:56.137Z,1003.63
2019-04-29T06:44:55.218Z,1003.60
2019-04-29T06:45:55.220Z,1003.58
2019-04-29T06:46:56.308Z,1003.59
2019-04-29T06:47:55.249Z,1003.56
2019-04-29T06:49:09.062Z,1003.57
2019-04-29T06:49:56.161Z,1003.43
2019-04-29T06:50:55.145Z,1003.51
2019-04-29T06:51:55.134Z,1003.44
2019-04-29T06:52:55.122Z,1003.37
2019-04-29T06:53:55.175Z,1003.43
2019-04-29T06:54:55.101Z,1003.46
2019-04-29T06:55:55.098Z,1003.53
2019-04-29T06:56:55.076Z,1003.47
2019-04-29T06:57:55.066Z,1003.44
2019-04-29T06:58:55.055Z,1003.47
2019-04-29T06:59:55.107Z,1003.44
2019-04-29T07:00:55.946Z,1003.44
2019-04-29T07:01:56.021Z,1003.53
2019-04-29T07:02:55.009Z,1003.43
2019-04-29T07:03:55.728Z,1003.47
2019-04-29T07:04:54.985Z,1003.47
2019-04-29T07:05:55.036Z,1003.53
2019-04-29T07:06:57.743Z,1003.50
2019-04-29T07:07:54.960Z,1003.49
2019-04-29T07:08:54.942Z,1003.45
2019-04-29T07:09:56.866Z,1003.43
2019-04-29T07:10:56.026Z,1003.43
2019-04-29T07:12:01.432Z,1003.42
2019-04-29T07:12:55.893Z,1003.45
2019-04-29T07:13:57.602Z,1003.46
2019-04-29T07:14:54.873Z,1003.44
2019-04-29T07:15:54.865Z,1003.42
2019-04-29T07:16:54.851Z,1003.42
2019-04-29T07:17:54.899Z,1003.50
2019-04-29T07:18:54.828Z,1003.47
2019-04-29T07:19:57.620Z,1003.37
2019-04-29T07:20:55.804Z,1003.35
2019-04-29T07:21:56.555Z,1003.31
2019-04-29T07:22:56.528Z,1003.40
2019-04-29T07:23:55.833Z,1003.45
2019-04-29T07:24:54.759Z,1003.42
2019-04-29T07:25:54.746Z,1003.40
2019-04-29T07:26:57.922Z,1003.46
2019-04-29T07:27:55.722Z,1003.49
2019-04-29T07:28:55.713Z,1003.46
2019-04-29T07:29:54.762Z,1003.47
2019-04-29T07:31:03.074Z,1003.42
2019-04-29T07:31:55.684Z,1003.44
2019-04-29T07:32:54.667Z,1003.49
2019-04-29T07:33:57.900Z,1003.40
2019-04-29T07:34:54.642Z,1003.41
2019-04-29T07:35:54.710Z,1003.38
2019-04-29T07:36:57.719Z,1003.36
2019-04-29T07:37:54.607Z,1003.39
2019-04-29T07:38:56.629Z,1003.34
2019-04-29T07:39:54.585Z,1003.32
2019-04-29T07:40:54.574Z,1003.35
2019-04-29T07:41:54.752Z,1003.33
2019-04-29T07:42:54.562Z,1003.32
2019-04-29T07:43:54.540Z,1003.31
2019-04-29T07:44:54.529Z,1003.31
2019-04-29T07:45:54.517Z,1003.25
2019-04-29T07:46:58.276Z,1003.26
2019-04-29T07:47:56.824Z,1003.31
2019-04-29T07:49:01.199Z,1003.12
2019-04-29T07:49:55.754Z,1003.17
2019-04-29T07:50:54.461Z,1003.19
2019-04-29T07:51:54.449Z,1003.23
2019-04-29T07:52:54.436Z,1003.20
2019-04-29T07:53:54.491Z,1003.20
2019-04-29T07:54:56.131Z,1003.15
2019-04-29T07:55:54.405Z,1003.12
2019-04-29T07:56:54.392Z,1003.05
2019-04-29T07:57:54.384Z,1003.04
2019-04-29T07:58:54.367Z,1003.07
2019-04-29T07:59:54.562Z,1003.08
2019-04-29T08:00:56.275Z,1003.08
2019-04-29T08:01:55.699Z,1003.03
2019-04-29T08:02:55.323Z,1002.97
2019-04-29T08:03:54.313Z,1003.06
2019-04-29T08:04:54.298Z,1003.02
2019-04-29T08:05:54.357Z,1003.04
2019-04-29T08:06:54.275Z,1003.10
2019-04-29T08:07:54.265Z,1003.04
2019-04-29T08:08:57.360Z,1002.98
2019-04-29T08:09:55.240Z,1003.01
2019-04-29T08:10:56.661Z,1003.03
2019-04-29T08:11:54.278Z,1003.01
2019-04-29T08:12:54.205Z,1003.02
2019-04-29T08:13:54.196Z,1003.01
2019-04-29T08:14:58.632Z,1003.05
2019-04-29T08:15:55.197Z,1002.89
2019-04-29T08:16:54.177Z,1003.02
2019-04-29T08:18:05.957Z,1002.94
2019-04-29T08:18:55.140Z,1003.04
2019-04-29T08:19:54.128Z,1003.02
2019-04-29T08:20:54.116Z,1002.95
2019-04-29T08:21:54.102Z,1003.05
2019-04-29T08:22:54.094Z,1002.93
2019-04-29T08:23:54.141Z,1003.04
2019-04-29T08:24:54.067Z,1003.00
2019-04-29T08:25:57.489Z,1002.91
2019-04-29T08:26:55.053Z,1003.03
2019-04-29T08:27:54.033Z,1003.05
2019-04-29T08:29:00.291Z,1002.92
2019-04-29T08:29:55.076Z,1003.08
2019-04-29T08:30:54.008Z,1003.02
2019-04-29T08:31:57.349Z,1003.07
2019-04-29T08:32:54.977Z,1002.98
2019-04-29T08:33:53.965Z,1003.03
2019-04-29T08:34:58.296Z,1002.99
2019-04-29T08:35:55.156Z,1002.97
2019-04-29T08:36:53.931Z,1003.04
2019-04-29T08:37:53.920Z,1002.95
2019-04-29T08:38:53.908Z,1002.95
2019-04-29T08:40:14.707Z,1002.99
2019-04-29T08:40:54.883Z,1003.02
2019-04-29T08:41:53.935Z,1003.02
2019-04-29T08:42:53.862Z,1002.98
2019-04-29T08:43:57.820Z,1003.01
2019-04-29T08:44:59.551Z,1002.99
2019-04-29T08:45:54.825Z,1002.98
2019-04-29T08:46:53.823Z,1003.00
2019-04-29T08:47:53.867Z,1002.89
2019-04-29T08:48:53.801Z,1002.94
2019-04-29T08:49:53.782Z,1002.97
2019-04-29T08:50:53.772Z,1003.06
2019-04-29T08:51:53.757Z,1002.97
2019-04-29T08:52:53.748Z,1002.90
2019-04-29T08:53:53.807Z,1002.93
2019-04-29T08:54:55.495Z,1003.01
2019-04-29T08:55:53.717Z,1003.02
2019-04-29T08:57:03.156Z,1002.93
2019-04-29T08:57:54.689Z,1002.92
2019-04-29T08:58:53.679Z,1002.92
2019-04-29T08:59:53.878Z,1002.93
2019-04-29T09:00:55.686Z,1002.90
2019-04-29T09:01:53.648Z,1002.93
2019-04-29T09:02:53.632Z,1002.94
2019-04-29T09:03:57.635Z,1002.92
2019-04-29T09:04:54.089Z,1002.87
2019-04-29T09:06:05.011Z,1002.80
2019-04-29T09:06:54.588Z,1002.87
2019-04-29T09:07:57.311Z,1002.88
2019-04-29T09:08:59.237Z,1002.86
2019-04-29T09:09:56.133Z,1002.88
2019-04-29T09:10:54.599Z,1002.81
2019-04-29T09:11:53.528Z,1002.88
2019-04-29T09:12:53.519Z,1002.85
2019-04-29T09:13:53.505Z,1002.88
2019-04-29T09:14:53.497Z,1002.95
2019-04-29T09:15:53.485Z,1002.97
2019-04-29T09:16:53.535Z,1002.92
2019-04-29T09:17:53.546Z,1002.93
2019-04-29T09:18:53.463Z,1002.90
2019-04-29T09:19:53.438Z,1002.86
2019-04-29T09:20:53.429Z,1002.86
2019-04-29T09:21:53.415Z,1002.87
2019-04-29T09:22:53.473Z,1002.82
2019-04-29T09:23:53.395Z,1002.82
2019-04-29T09:24:53.380Z,1002.87
2019-04-29T09:26:02.472Z,1002.84
2019-04-29T09:26:54.359Z,1002.82
2019-04-29T09:27:56.248Z,1002.82
2019-04-29T09:28:53.541Z,1002.78
2019-04-29T09:29:54.193Z,1002.78
2019-04-29T09:30:54.314Z,1002.72
2019-04-29T09:31:53.300Z,1002.76
2019-04-29T09:32:53.288Z,1002.68
2019-04-29T09:34:06.023Z,1002.63
2019-04-29T09:34:55.551Z,1002.68
2019-04-29T09:35:53.252Z,1002.65
2019-04-29T09:36:53.240Z,1002.64
2019-04-29T09:37:53.894Z,1002.65
2019-04-29T09:38:53.217Z,1002.65
2019-04-29T09:39:53.239Z,1002.55
2019-04-29T09:40:54.624Z,1002.59
2019-04-29T09:41:54.183Z,1002.66
2019-04-29T09:42:53.171Z,1002.59
2019-04-29T09:43:53.160Z,1002.61
2019-04-29T09:44:53.147Z,1002.64
2019-04-29T09:45:53.842Z,1002.58
2019-04-29T09:46:54.195Z,1002.54
2019-04-29T09:47:53.118Z,1002.53
2019-04-29T09:48:53.103Z,1002.57
2019-04-29T09:49:53.092Z,1002.52
2019-04-29T09:50:53.085Z,1002.53
2019-04-29T09:51:53.080Z,1002.51
2019-04-29T09:52:53.123Z,1002.44
2019-04-29T09:53:53.048Z,1002.55
2019-04-29T09:54:53.034Z,1002.43
2019-04-29T09:55:53.024Z,1002.34
2019-04-29T09:56:53.015Z,1002.40
2019-04-29T09:57:53.006Z,1002.36
2019-04-29T09:58:53.054Z,1002.37
2019-04-29T09:59:52.979Z,1002.41
2019-04-29T10:00:52.991Z,1002.42
2019-04-29T10:01:55.098Z,1002.34
2019-04-29T10:02:52.943Z,1002.25
2019-04-29T10:03:52.944Z,1002.30
2019-04-29T10:04:56.666Z,1002.24
2019-04-29T10:05:52.909Z,1002.36
2019-04-29T10:06:52.896Z,1002.31
2019-04-29T10:07:52.887Z,1002.35
2019-04-29T10:08:52.883Z,1002.36
2019-04-29T10:09:57.405Z,1002.29
2019-04-29T10:10:52.913Z,1002.29
2019-04-29T10:11:52.840Z,1002.32
2019-04-29T10:12:54.128Z,1002.30
2019-04-29T10:13:52.822Z,1002.18
2019-04-29T10:14:52.814Z,1002.26
2019-04-29T10:15:55.944Z,1002.23
2019-04-29T10:16:53.845Z,1002.27
2019-04-29T10:17:55.693Z,1002.20
2019-04-29T10:18:52.758Z,1002.35
2019-04-29T10:19:52.760Z,1002.26
2019-04-29T10:20:52.759Z,1002.31
2019-04-29T10:21:52.744Z,1002.28
2019-04-29T10:22:53.869Z,1002.26
2019-04-29T10:23:52.702Z,1002.27
2019-04-29T10:24:52.691Z,1002.20
2019-04-29T10:25:52.680Z,1002.18
2019-04-29T10:26:52.686Z,1002.17
2019-04-29T10:27:52.658Z,1002.12
2019-04-29T10:28:52.859Z,1002.12
2019-04-29T10:29:55.272Z,1002.14
2019-04-29T10:30:52.634Z,1002.16
2019-04-29T10:31:52.614Z,1002.05
2019-04-29T10:32:52.614Z,1002.14
2019-04-29T10:33:54.824Z,1002.20
2019-04-29T10:34:52.664Z,1002.24
2019-04-29T10:35:52.566Z,1002.27
2019-04-29T10:36:53.693Z,1002.19
2019-04-29T10:37:52.544Z,1002.18
2019-04-29T10:38:52.537Z,1002.18
2019-04-29T10:39:52.520Z,1002.17
2019-04-29T10:40:52.634Z,1002.19
2019-04-29T10:41:52.560Z,1002.24
2019-04-29T10:42:52.508Z,1002.15
2019-04-29T10:43:53.772Z,1002.17
2019-04-29T10:44:52.465Z,1002.19
2019-04-29T10:45:52.451Z,1002.14
2019-04-29T10:46:52.659Z,1002.16
2019-04-29T10:47:52.438Z,1002.15
2019-04-29T10:48:52.420Z,1002.22
2019-04-29T10:49:52.418Z,1002.06
2019-04-29T10:50:53.909Z,1002.10
2019-04-29T10:51:52.407Z,1002.01
2019-04-29T10:52:52.433Z,1002.07
2019-04-29T10:53:52.711Z,1002.13
2019-04-29T10:54:55.332Z,1002.08
2019-04-29T10:55:52.341Z,1002.18
2019-04-29T10:56:52.342Z,1002.19
2019-04-29T10:57:52.325Z,1002.20
2019-04-29T10:58:52.368Z,1002.24
2019-04-29T10:59:52.301Z,1002.23
2019-04-29T11:00:52.798Z,1002.27
2019-04-29T11:02:01.026Z,1002.21
2019-04-29T11:02:53.266Z,1002.20
2019-04-29T11:03:55.825Z,1002.24
2019-04-29T11:04:53.295Z,1002.30
2019-04-29T11:06:00.288Z,1002.30
2019-04-29T11:06:53.207Z,1002.36
2019-04-29T11:07:52.224Z,1002.36
2019-04-29T11:08:52.219Z,1002.41
2019-04-29T11:09:52.629Z,1002.38
2019-04-29T11:11:01.871Z,1002.47
2019-04-29T11:11:53.159Z,1002.41
2019-04-29T11:12:52.141Z,1002.45
2019-04-29T11:13:52.139Z,1002.36
2019-04-29T11:14:52.152Z,1002.34
2019-04-29T11:15:52.147Z,1002.31
2019-04-29T11:16:52.338Z,1002.36
2019-04-29T11:17:58.788Z,1002.39
2019-04-29T11:18:55.019Z,1002.29
2019-04-29T11:19:53.061Z,1002.21
2019-04-29T11:20:53.850Z,1002.23
2019-04-29T11:21:52.044Z,1002.18
2019-04-29T11:22:52.088Z,1002.14
2019-04-29T11:23:54.773Z,1002.10
2019-04-29T11:24:52.040Z,1002.07
2019-04-29T11:25:52.036Z,1002.16
2019-04-29T11:26:51.989Z,1002.18
2019-04-29T11:27:52.006Z,1002.20
2019-04-29T11:28:52.381Z,1002.13
2019-04-29T11:29:51.952Z,1002.12
2019-04-29T11:30:51.938Z,1002.08
2019-04-29T11:31:54.034Z,1002.00
2019-04-29T11:32:51.913Z,1001.96
2019-04-29T11:33:51.946Z,1001.93
2019-04-29T11:34:53.416Z,1001.96
2019-04-29T11:35:51.897Z,1001.88
2019-04-29T11:36:51.879Z,1001.90
2019-04-29T11:37:54.939Z,1001.84
2019-04-29T11:38:52.860Z,1001.83
2019-04-29T11:39:51.858Z,1001.77
2019-04-29T11:40:51.891Z,1001.76
2019-04-29T11:41:54.638Z,1001.78
2019-04-29T11:42:52.802Z,1001.80
2019-04-29T11:43:52.821Z,1001.71
2019-04-29T11:44:51.782Z,1001.71
2019-04-29T11:45:51.767Z,1001.72
2019-04-29T11:46:51.832Z,1001.67
2019-04-29T11:47:51.745Z,1001.63
2019-04-29T11:48:51.746Z,1001.54
2019-04-29T11:49:51.724Z,1001.64
2019-04-29T11:50:54.888Z,1001.53
2019-04-29T11:52:08.518Z,1001.51
2019-04-29T11:52:55.563Z,1001.55
2019-04-29T11:53:51.681Z,1001.54
2019-04-29T11:54:51.676Z,1001.55
2019-04-29T11:55:52.406Z,1001.40
2019-04-29T11:56:51.645Z,1001.43
2019-04-29T11:57:51.637Z,1001.45
2019-04-29T11:58:51.830Z,1001.34
2019-04-29T11:59:51.612Z,1001.37
2019-04-29T12:00:52.114Z,1001.35
2019-04-29T12:01:53.364Z,1001.39
2019-04-29T12:02:51.591Z,1001.33
2019-04-29T12:03:56.353Z,1001.33
2019-04-29T12:04:52.611Z,1001.28
2019-04-29T12:05:51.546Z,1001.29